sensor_id;sensor_type;location;lat;lon;timestamp;pressure;altitude;pressure_sealevel;temperature;humidity
64064;BME280;50314;50.618;10.642;2023-07-31T00:00:36;96504.22;;;21.06;31.36
64064;BME280;50314;50.618;10.642;2023-07-31T00:03:04;96505.03;;;21.07;31.58
64064;BME280;50314;50.618;10.642;2023-07-31T00:05:29;96501.38;;;21.08;31.94
64064;BME280;50314;50.618;10.642;2023-07-31T00:07:55;96495.19;;;21.07;31.56
64064;BME280;50314;50.618;10.642;2023-07-31T00:10:23;96504.41;;;21.05;31.42
64064;BME280;50314;50.618;10.642;2023-07-31T00:12:48;96500.91;;;21.04;31.67
64064;BME280;50314;50.618;10.642;2023-07-31T00:15:14;96499.22;;;21.03;31.54
64064;BME280;50314;50.618;10.642;2023-07-31T00:17:40;96493.03;;;21.03;31.55
64064;BME280;50314;50.618;10.642;2023-07-31T00:20:26;96492.94;;;20.96;31.81
64064;BME280;50314;50.618;10.642;2023-07-31T00:26:38;96494.53;;;21.05;31.44
64064;BME280;50314;50.618;10.642;2023-07-31T00:29:04;96490.19;;;21.04;31.29
64064;BME280;50314;50.618;10.642;2023-07-31T00:31:29;96488.50;;;21.03;31.60
64064;BME280;50314;50.618;10.642;2023-07-31T00:33:55;96488.88;;;21.00;31.51
64064;BME280;50314;50.618;10.642;2023-07-31T00:36:20;96489.09;;;20.99;31.61
64064;BME280;50314;50.618;10.642;2023-07-31T00:38:46;96481.41;;;20.96;31.56
64064;BME280;50314;50.618;10.642;2023-07-31T00:41:11;96477.91;;;20.95;31.59
64064;BME280;50314;50.618;10.642;2023-07-31T00:43:37;96475.44;;;20.94;31.63
64064;BME280;50314;50.618;10.642;2023-07-31T00:46:02;96478.28;;;20.92;31.67
64064;BME280;50314;50.618;10.642;2023-07-31T00:48:28;96488.16;;;20.92;31.49
64064;BME280;50314;50.618;10.642;2023-07-31T00:50:54;96473.94;;;20.91;31.76
64064;BME280;50314;50.618;10.642;2023-07-31T00:53:20;96466.91;;;20.90;31.47
64064;BME280;50314;50.618;10.642;2023-07-31T00:55:45;96475.97;;;20.89;31.46
64064;BME280;50314;50.618;10.642;2023-07-31T00:58:11;96469.78;;;20.88;31.78
64064;BME280;50314;50.618;10.642;2023-07-31T01:00:37;96465.47;;;20.87;31.66
64064;BME280;50314;50.618;10.642;2023-07-31T01:03:02;96460.94;;;20.88;31.79
64064;BME280;50314;50.618;10.642;2023-07-31T01:05:51;96469.69;;;20.82;31.92
64064;BME280;50314;50.618;10.642;2023-07-31T01:08:26;96457.97;;;20.83;31.67
64064;BME280;50314;50.618;10.642;2023-07-31T01:11:19;96457.50;;;20.79;31.82
64064;BME280;50314;50.618;10.642;2023-07-31T01:13:47;96452.25;;;20.86;31.67
64064;BME280;50314;50.618;10.642;2023-07-31T01:16:13;96446.88;;;20.86;31.87
64064;BME280;50314;50.618;10.642;2023-07-31T01:18:38;96453.44;;;20.83;31.74
64064;BME280;50314;50.618;10.642;2023-07-31T01:21:41;96447.00;;;20.78;31.86
64064;BME280;50314;50.618;10.642;2023-07-31T01:24:19;96445.97;;;20.79;31.85
64064;BME280;50314;50.618;10.642;2023-07-31T01:26:49;96452.81;;;20.81;31.69
64064;BME280;50314;50.618;10.642;2023-07-31T01:29:38;96449.00;;;20.76;31.83
64064;BME280;50314;50.618;10.642;2023-07-31T01:32:09;96449.31;;;20.81;31.93
64064;BME280;50314;50.618;10.642;2023-07-31T01:34:36;96448.47;;;20.80;31.68
64064;BME280;50314;50.618;10.642;2023-07-31T01:37:02;96451.16;;;20.80;31.80
64064;BME280;50314;50.618;10.642;2023-07-31T01:39:28;96445.81;;;20.80;31.69
64064;BME280;50314;50.618;10.642;2023-07-31T01:41:54;96447.63;;;20.80;31.65
64064;BME280;50314;50.618;10.642;2023-07-31T01:44:19;96439.59;;;20.80;31.78
64064;BME280;50314;50.618;10.642;2023-07-31T01:46:45;96444.13;;;20.79;31.68
64064;BME280;50314;50.618;10.642;2023-07-31T01:49:10;96447.81;;;20.78;31.76
64064;BME280;50314;50.618;10.642;2023-07-31T01:51:36;96441.63;;;20.78;31.74
64064;BME280;50314;50.618;10.642;2023-07-31T01:54:02;96438.13;;;20.77;31.87
64064;BME280;50314;50.618;10.642;2023-07-31T01:56:28;96445.34;;;20.77;31.79
64064;BME280;50314;50.618;10.642;2023-07-31T01:58:54;96432.94;;;20.76;31.88
64064;BME280;50314;50.618;10.642;2023-07-31T02:01:19;96437.47;;;20.75;31.94
64064;BME280;50314;50.618;10.642;2023-07-31T02:03:45;96431.31;;;20.75;31.84
64064;BME280;50314;50.618;10.642;2023-07-31T02:06:10;96431.31;;;20.75;31.71
64064;BME280;50314;50.618;10.642;2023-07-31T02:08:36;96430.47;;;20.74;31.65
64064;BME280;50314;50.618;10.642;2023-07-31T02:11:01;96433.31;;;20.73;31.72
64064;BME280;50314;50.618;10.642;2023-07-31T02:13:27;96415.41;;;20.73;31.74
64064;BME280;50314;50.618;10.642;2023-07-31T02:15:53;96413.75;;;20.72;32.00
64064;BME280;50314;50.618;10.642;2023-07-31T02:18:19;96415.63;;;20.72;31.90
64064;BME280;50314;50.618;10.642;2023-07-31T02:20:51;96411.44;;;20.69;31.90
64064;BME280;50314;50.618;10.642;2023-07-31T02:23:18;96407.78;;;20.70;31.78
64064;BME280;50314;50.618;10.642;2023-07-31T02:25:44;96408.78;;;20.69;31.98
64064;BME280;50314;50.618;10.642;2023-07-31T02:28:10;96407.94;;;20.69;31.94
64064;BME280;50314;50.618;10.642;2023-07-31T02:30:36;96405.28;;;20.69;31.90
64064;BME280;50314;50.618;10.642;2023-07-31T02:33:01;96409.78;;;20.68;31.90
64064;BME280;50314;50.618;10.642;2023-07-31T02:35:27;96398.28;;;20.68;31.87
64064;BME280;50314;50.618;10.642;2023-07-31T02:37:53;96402.78;;;20.67;31.83
64064;BME280;50314;50.618;10.642;2023-07-31T02:40:18;96402.78;;;20.67;31.50
64064;BME280;50314;50.618;10.642;2023-07-31T02:42:44;96402.78;;;20.67;31.72
64064;BME280;50314;50.618;10.642;2023-07-31T02:45:10;96405.63;;;20.65;31.64
64064;BME280;50314;50.618;10.642;2023-07-31T02:47:35;96410.16;;;20.65;31.81
64064;BME280;50314;50.618;10.642;2023-07-31T02:50:05;96411.00;;;20.65;31.90
64064;BME280;50314;50.618;10.642;2023-07-31T02:52:31;96405.00;;;20.63;31.85
64064;BME280;50314;50.618;10.642;2023-07-31T02:54:57;96403.16;;;20.64;31.63
64064;BME280;50314;50.618;10.642;2023-07-31T02:57:23;96408.50;;;20.64;31.76
64064;BME280;50314;50.618;10.642;2023-07-31T02:59:49;96413.03;;;20.63;31.67
64064;BME280;50314;50.618;10.642;2023-07-31T03:02:14;96412.38;;;20.61;31.58
64064;BME280;50314;50.618;10.642;2023-07-31T03:04:40;96410.53;;;20.62;31.81
64064;BME280;50314;50.618;10.642;2023-07-31T03:07:06;96400.66;;;20.62;31.69
64064;BME280;50314;50.618;10.642;2023-07-31T03:09:31;96399.81;;;20.62;31.79
64064;BME280;50314;50.618;10.642;2023-07-31T03:11:57;96391.81;;;20.62;31.82
64064;BME280;50314;50.618;10.642;2023-07-31T03:14:22;96399.00;;;20.61;31.52
64064;BME280;50314;50.618;10.642;2023-07-31T03:16:48;96390.97;;;20.61;31.61
64064;BME280;50314;50.618;10.642;2023-07-31T03:19:14;96393.84;;;20.60;31.54
64064;BME280;50314;50.618;10.642;2023-07-31T03:21:40;96400.03;;;20.60;31.82
64064;BME280;50314;50.618;10.642;2023-07-31T03:24:06;96393.00;;;20.59;31.71
64064;BME280;50314;50.618;10.642;2023-07-31T03:26:32;96395.84;;;20.58;31.70
64064;BME280;50314;50.618;10.642;2023-07-31T03:28:58;96390.31;;;20.59;31.81
64064;BME280;50314;50.618;10.642;2023-07-31T03:31:23;96395.84;;;20.58;31.89
64064;BME280;50314;50.618;10.642;2023-07-31T03:33:49;96391.50;;;20.57;31.71
64064;BME280;50314;50.618;10.642;2023-07-31T03:36:14;96385.31;;;20.56;31.48
64064;BME280;50314;50.618;10.642;2023-07-31T03:38:40;96380.81;;;20.57;31.80
64064;BME280;50314;50.618;10.642;2023-07-31T03:41:06;96374.59;;;20.56;31.73
64064;BME280;50314;50.618;10.642;2023-07-31T03:43:32;96379.94;;;20.56;31.80
64064;BME280;50314;50.618;10.642;2023-07-31T03:46:00;96380.97;;;20.55;31.93
64064;BME280;50314;50.618;10.642;2023-07-31T03:48:25;96386.31;;;20.55;31.70
64064;BME280;50314;50.618;10.642;2023-07-31T03:50:51;96378.28;;;20.55;31.71
64064;BME280;50314;50.618;10.642;2023-07-31T03:53:17;96384.47;;;20.56;31.80
64064;BME280;50314;50.618;10.642;2023-07-31T03:55:42;96376.66;;;20.54;31.98
64064;BME280;50314;50.618;10.642;2023-07-31T03:58:08;96376.66;;;20.54;31.46
64064;BME280;50314;50.618;10.642;2023-07-31T04:00:34;96375.00;;;20.53;31.83
64064;BME280;50314;50.618;10.642;2023-07-31T04:02:59;96368.78;;;20.53;31.60
64064;BME280;50314;50.618;10.642;2023-07-31T04:05:25;96363.44;;;20.53;31.84
64064;BME280;50314;50.618;10.642;2023-07-31T04:07:51;96363.44;;;20.53;31.76
64064;BME280;50314;50.618;10.642;2023-07-31T04:10:16;96359.94;;;20.52;31.67
64064;BME280;50314;50.618;10.642;2023-07-31T04:12:42;96367.13;;;20.52;31.81
64064;BME280;50314;50.618;10.642;2023-07-31T04:15:08;96371.66;;;20.51;31.82
64064;BME280;50314;50.618;10.642;2023-07-31T04:17:34;96363.63;;;20.51;31.76
64064;BME280;50314;50.618;10.642;2023-07-31T04:19:59;96370.84;;;20.51;31.96
64064;BME280;50314;50.618;10.642;2023-07-31T04:22:25;96370.00;;;20.50;31.73
64064;BME280;50314;50.618;10.642;2023-07-31T04:24:50;96370.84;;;20.51;31.80
64064;BME280;50314;50.618;10.642;2023-07-31T04:27:16;96373.50;;;20.51;31.83
64064;BME280;50314;50.618;10.642;2023-07-31T04:29:41;96374.50;;;20.50;31.68
64064;BME280;50314;50.618;10.642;2023-07-31T04:32:09;96368.31;;;20.49;31.81
64064;BME280;50314;50.618;10.642;2023-07-31T04:34:35;96373.69;;;20.49;31.92
64064;BME280;50314;50.618;10.642;2023-07-31T04:37:00;96369.34;;;20.48;31.74
64064;BME280;50314;50.618;10.642;2023-07-31T04:39:26;96361.31;;;20.48;31.92
64064;BME280;50314;50.618;10.642;2023-07-31T04:41:51;96362.97;;;20.49;31.72
64064;BME280;50314;50.618;10.642;2023-07-31T04:44:17;96367.50;;;20.49;31.92
64064;BME280;50314;50.618;10.642;2023-07-31T04:46:47;96364.00;;;20.48;31.96
64064;BME280;50314;50.618;10.642;2023-07-31T04:49:16;96363.19;;;20.48;31.89
64064;BME280;50314;50.618;10.642;2023-07-31T04:51:41;96360.50;;;20.48;31.92
64064;BME280;50314;50.618;10.642;2023-07-31T04:54:07;96348.97;;;20.47;31.91
64064;BME280;50314;50.618;10.642;2023-07-31T04:56:32;96351.66;;;20.47;31.97
64064;BME280;50314;50.618;10.642;2023-07-31T04:58:58;96362.34;;;20.47;32.01
64064;BME280;50314;50.618;10.642;2023-07-31T05:01:23;96357.00;;;20.47;31.89
64064;BME280;50314;50.618;10.642;2023-07-31T05:03:49;96365.03;;;20.47;31.71
64064;BME280;50314;50.618;10.642;2023-07-31T05:06:15;96351.81;;;20.46;31.77
64064;BME280;50314;50.618;10.642;2023-07-31T05:08:40;96358.00;;;20.46;32.04
64064;BME280;50314;50.618;10.642;2023-07-31T05:11:06;96358.00;;;20.46;31.93
64064;BME280;50314;50.618;10.642;2023-07-31T05:13:31;96355.31;;;20.46;32.05
64064;BME280;50314;50.618;10.642;2023-07-31T05:15:57;96357.16;;;20.46;31.85
64064;BME280;50314;50.618;10.642;2023-07-31T05:18:22;96359.03;;;20.45;32.01
64064;BME280;50314;50.618;10.642;2023-07-31T05:20:48;96362.72;;;20.44;31.77
64064;BME280;50314;50.618;10.642;2023-07-31T05:23:14;96364.56;;;20.44;32.03
64064;BME280;50314;50.618;10.642;2023-07-31T05:25:39;96365.38;;;20.44;31.95
64064;BME280;50314;50.618;10.642;2023-07-31T05:28:05;96365.38;;;20.44;31.92
64064;BME280;50314;50.618;10.642;2023-07-31T05:30:31;96369.09;;;20.43;31.93
64064;BME280;50314;50.618;10.642;2023-07-31T05:32:57;96364.72;;;20.42;32.21
64064;BME280;50314;50.618;10.642;2023-07-31T05:35:22;96363.75;;;20.43;32.03
64064;BME280;50314;50.618;10.642;2023-07-31T05:37:48;96367.41;;;20.42;31.97
64064;BME280;50314;50.618;10.642;2023-07-31T05:40:14;96375.44;;;20.42;31.78
64064;BME280;50314;50.618;10.642;2023-07-31T05:42:39;96372.75;;;20.42;32.06
64064;BME280;50314;50.618;10.642;2023-07-31T05:45:07;96356.72;;;20.42;32.19
64064;BME280;50314;50.618;10.642;2023-07-31T05:47:33;96361.06;;;20.43;32.01
64064;BME280;50314;50.618;10.642;2023-07-31T05:49:58;96358.00;;;20.46;31.98
64064;BME280;50314;50.618;10.642;2023-07-31T05:52:24;96354.94;;;20.49;31.87
64064;BME280;50314;50.618;10.642;2023-07-31T05:54:50;96354.59;;;20.52;31.99
64064;BME280;50314;50.618;10.642;2023-07-31T05:57:16;96351.44;;;20.49;32.17
64064;BME280;50314;50.618;10.642;2023-07-31T05:59:41;96359.31;;;20.50;32.25
64064;BME280;50314;50.618;10.642;2023-07-31T06:02:07;96350.34;;;20.58;31.83
64064;BME280;50314;50.618;10.642;2023-07-31T06:04:33;96353.72;;;20.60;32.21
64064;BME280;50314;50.618;10.642;2023-07-31T06:06:58;96363.56;;;20.59;31.99
64064;BME280;50314;50.618;10.642;2023-07-31T06:09:24;96361.06;;;20.58;31.84
64064;BME280;50314;50.618;10.642;2023-07-31T06:11:51;96363.06;;;20.56;31.81
64064;BME280;50314;50.618;10.642;2023-07-31T06:14:16;96364.91;;;20.55;31.65
64064;BME280;50314;50.618;10.642;2023-07-31T06:16:42;96360.41;;;20.56;31.79
64064;BME280;50314;50.618;10.642;2023-07-31T06:19:09;96363.06;;;20.56;31.88
64064;BME280;50314;50.618;10.642;2023-07-31T06:21:35;96358.53;;;20.56;32.05
64064;BME280;50314;50.618;10.642;2023-07-31T06:24:03;96354.22;;;20.55;32.10
64064;BME280;50314;50.618;10.642;2023-07-31T06:26:29;96355.03;;;20.56;31.97
64064;BME280;50314;50.618;10.642;2023-07-31T06:28:54;96352.38;;;20.56;31.93
64064;BME280;50314;50.618;10.642;2023-07-31T06:31:20;96359.41;;;20.57;32.04
64064;BME280;50314;50.618;10.642;2023-07-31T06:33:51;96354.88;;;20.57;31.88
64064;BME280;50314;50.618;10.642;2023-07-31T06:36:16;96359.41;;;20.57;31.91
64064;BME280;50314;50.618;10.642;2023-07-31T06:38:42;96358.53;;;20.56;32.03
64064;BME280;50314;50.618;10.642;2023-07-31T06:41:08;96350.53;;;20.56;32.08
64064;BME280;50314;50.618;10.642;2023-07-31T06:43:33;96360.22;;;20.57;32.11
64064;BME280;50314;50.618;10.642;2023-07-31T06:46:05;96352.56;;;20.54;31.98
64064;BME280;50314;50.618;10.642;2023-07-31T06:48:31;96352.22;;;20.57;32.01
64064;BME280;50314;50.618;10.642;2023-07-31T06:50:56;96351.19;;;20.58;31.79
64064;BME280;50314;50.618;10.642;2023-07-31T06:53:22;96352.88;;;20.59;32.03
64064;BME280;50314;50.618;10.642;2023-07-31T06:55:47;96356.19;;;20.61;32.08
64064;BME280;50314;50.618;10.642;2023-07-31T06:58:13;96352.50;;;20.62;31.86
64064;BME280;50314;50.618;10.642;2023-07-31T07:00:39;96352.69;;;20.61;31.90
64064;BME280;50314;50.618;10.642;2023-07-31T07:03:04;96359.91;;;20.60;31.78
64064;BME280;50314;50.618;10.642;2023-07-31T07:05:30;96359.06;;;20.60;31.79
64064;BME280;50314;50.618;10.642;2023-07-31T07:07:55;96357.56;;;20.57;31.73
64064;BME280;50314;50.618;10.642;2023-07-31T07:10:21;96360.22;;;20.57;31.71
64064;BME280;50314;50.618;10.642;2023-07-31T07:15:13;96361.13;;;20.50;31.89
64064;BME280;50314;50.618;10.642;2023-07-31T07:17:39;96360.59;;;20.54;31.62
64064;BME280;50314;50.618;10.642;2023-07-31T07:20:05;96359.78;;;20.54;31.55
64064;BME280;50314;50.618;10.642;2023-07-31T07:22:31;96357.25;;;20.52;31.63
64064;BME280;50314;50.618;10.642;2023-07-31T07:24:56;96360.31;;;20.49;31.59
64064;BME280;50314;50.618;10.642;2023-07-31T07:27:22;96363.81;;;20.50;31.73
64064;BME280;50314;50.618;10.642;2023-07-31T07:29:50;96355.97;;;20.48;31.54
64064;BME280;50314;50.618;10.642;2023-07-31T07:32:17;96350.63;;;20.48;31.68
64064;BME280;50314;50.618;10.642;2023-07-31T07:34:43;96344.44;;;20.48;31.78
64064;BME280;50314;50.618;10.642;2023-07-31T07:37:09;96344.63;;;20.46;31.70
64064;BME280;50314;50.618;10.642;2023-07-31T07:39:34;96340.75;;;20.49;31.93
64064;BME280;50314;50.618;10.642;2023-07-31T07:42:00;96336.06;;;20.51;31.81
64064;BME280;50314;50.618;10.642;2023-07-31T07:44:25;96335.88;;;20.52;31.83
64064;BME280;50314;50.618;10.642;2023-07-31T07:46:52;96341.88;;;20.54;32.05
64064;BME280;50314;50.618;10.642;2023-07-31T07:49:17;96344.19;;;20.57;32.01
64064;BME280;50314;50.618;10.642;2023-07-31T07:51:43;96336.81;;;20.59;32.00
64064;BME280;50314;50.618;10.642;2023-07-31T07:54:09;96327.78;;;20.60;32.09
64064;BME280;50314;50.618;10.642;2023-07-31T07:56:34;96340.16;;;20.61;31.96
64064;BME280;50314;50.618;10.642;2023-07-31T07:59:01;96324.91;;;20.62;32.08
64064;BME280;50314;50.618;10.642;2023-07-31T08:01:27;96332.78;;;20.63;31.92
64064;BME280;50314;50.618;10.642;2023-07-31T08:03:52;96339.78;;;20.64;32.12
64064;BME280;50314;50.618;10.642;2023-07-31T08:06:18;96341.44;;;20.65;32.10
64064;BME280;50314;50.618;10.642;2023-07-31T08:08:44;96343.94;;;20.67;32.19
64064;BME280;50314;50.618;10.642;2023-07-31T08:11:09;96338.38;;;20.69;32.06
64064;BME280;50314;50.618;10.642;2023-07-31T08:13:35;96342.53;;;20.71;32.23
64064;BME280;50314;50.618;10.642;2023-07-31T08:16:03;96336.97;;;20.73;31.82
64064;BME280;50314;50.618;10.642;2023-07-31T08:18:30;96336.00;;;20.74;31.84
64064;BME280;50314;50.618;10.642;2023-07-31T08:20:55;96335.78;;;20.75;32.06
64064;BME280;50314;50.618;10.642;2023-07-31T08:23:21;96328.59;;;20.76;31.94
64064;BME280;50314;50.618;10.642;2023-07-31T08:25:46;96321.22;;;20.78;31.76
64064;BME280;50314;50.618;10.642;2023-07-31T08:28:12;96320.19;;;20.79;32.08
64064;BME280;50314;50.618;10.642;2023-07-31T08:30:38;96316.47;;;20.80;32.23
64064;BME280;50314;50.618;10.642;2023-07-31T08:33:03;96322.50;;;20.82;32.01
64064;BME280;50314;50.618;10.642;2023-07-31T08:35:29;96314.25;;;20.83;32.15
64064;BME280;50314;50.618;10.642;2023-07-31T08:37:54;96314.09;;;20.85;32.04
64064;BME280;50314;50.618;10.642;2023-07-31T08:40:20;96319.25;;;20.86;32.24
64064;BME280;50314;50.618;10.642;2023-07-31T08:42:48;96317.44;;;20.87;32.19
64064;BME280;50314;50.618;10.642;2023-07-31T08:45:17;96321.75;;;20.88;32.17
64064;BME280;50314;50.618;10.642;2023-07-31T08:47:50;96317.44;;;20.87;32.24
64064;BME280;50314;50.618;10.642;2023-07-31T08:50:17;96313.44;;;20.83;32.18
64064;BME280;50314;50.618;10.642;2023-07-31T08:52:43;96320.72;;;20.89;32.10
64064;BME280;50314;50.618;10.642;2023-07-31T08:55:09;96324.88;;;20.92;31.91
64064;BME280;50314;50.618;10.642;2023-07-31T08:57:36;96330.03;;;20.93;32.02
64064;BME280;50314;50.618;10.642;2023-07-31T09:00:06;96325.03;;;20.90;31.79
64064;BME280;50314;50.618;10.642;2023-07-31T09:02:45;96321.09;;;20.86;31.82
64064;BME280;50314;50.618;10.642;2023-07-31T09:05:12;96313.72;;;20.88;31.61
64064;BME280;50314;50.618;10.642;2023-07-31T09:07:38;96316.56;;;20.86;31.63
64064;BME280;50314;50.618;10.642;2023-07-31T09:10:05;96313.06;;;20.86;31.63
64064;BME280;50314;50.618;10.642;2023-07-31T09:12:31;96319.44;;;20.85;31.59
64064;BME280;50314;50.618;10.642;2023-07-31T09:14:57;96310.38;;;20.86;31.60
64064;BME280;50314;50.618;10.642;2023-07-31T09:17:30;96317.13;;;20.82;31.72
64064;BME280;50314;50.618;10.642;2023-07-31T09:19:56;96312.25;;;20.85;31.53
64064;BME280;50314;50.618;10.642;2023-07-31T09:22:32;96310.13;;;20.81;31.73
64064;BME280;50314;50.618;10.642;2023-07-31T09:25:34;96308.66;;;20.78;31.74
64064;BME280;50314;50.618;10.642;2023-07-31T09:28:02;96312.44;;;20.84;31.79
64064;BME280;50314;50.618;10.642;2023-07-31T09:30:28;96311.59;;;20.83;31.66
64064;BME280;50314;50.618;10.642;2023-07-31T09:33:04;96314.00;;;20.78;31.87
64064;BME280;50314;50.618;10.642;2023-07-31T09:35:34;96305.41;;;20.83;31.91
64064;BME280;50314;50.618;10.642;2023-07-31T09:38:05;96311.78;;;20.82;32.18
64064;BME280;50314;50.618;10.642;2023-07-31T09:40:33;96304.41;;;20.84;31.61
64064;BME280;50314;50.618;10.642;2023-07-31T09:43:09;96305.03;;;20.86;31.94
64064;BME280;50314;50.618;10.642;2023-07-31T09:45:40;96305.88;;;20.86;31.95
64064;BME280;50314;50.618;10.642;2023-07-31T09:48:12;96299.50;;;20.87;31.94
64064;BME280;50314;50.618;10.642;2023-07-31T09:50:44;96303.00;;;20.88;31.93
64064;BME280;50314;50.618;10.642;2023-07-31T09:53:10;96292.75;;;20.92;31.72
64064;BME280;50314;50.618;10.642;2023-07-31T09:55:37;96288.22;;;20.92;31.63
64064;BME280;50314;50.618;10.642;2023-07-31T09:58:09;96301.38;;;20.87;31.87
64064;BME280;50314;50.618;10.642;2023-07-31T10:00:36;96301.88;;;20.97;31.36
64064;BME280;50314;50.618;10.642;2023-07-31T10:03:05;96290.78;;;21.00;31.72
64064;BME280;50314;50.618;10.642;2023-07-31T10:05:35;96294.09;;;21.02;31.97
64064;BME280;50314;50.618;10.642;2023-07-31T10:08:00;96292.69;;;21.06;31.74
64064;BME280;50314;50.618;10.642;2023-07-31T10:10:27;96286.97;;;21.09;31.92
64064;BME280;50314;50.618;10.642;2023-07-31T10:12:53;96285.78;;;21.12;32.07
64064;BME280;50314;50.618;10.642;2023-07-31T10:15:20;96280.22;;;21.13;32.12
64064;BME280;50314;50.618;10.642;2023-07-31T10:17:49;96283.75;;;21.14;32.18
64064;BME280;50314;50.618;10.642;2023-07-31T10:20:16;96286.00;;;21.17;31.91
64064;BME280;50314;50.618;10.642;2023-07-31T10:22:42;96289.19;;;21.21;32.00
64064;BME280;50314;50.618;10.642;2023-07-31T10:25:09;96282.44;;;21.25;32.20
64064;BME280;50314;50.618;10.642;2023-07-31T10:27:35;96279.00;;;21.31;32.06
64064;BME280;50314;50.618;10.642;2023-07-31T10:30:04;96276.38;;;21.38;32.00
64064;BME280;50314;50.618;10.642;2023-07-31T10:32:31;96274.75;;;21.43;32.07
64064;BME280;50314;50.618;10.642;2023-07-31T10:34:58;96273.19;;;21.49;31.73
64064;BME280;50314;50.618;10.642;2023-07-31T10:37:30;96267.22;;;21.53;31.99
64064;BME280;50314;50.618;10.642;2023-07-31T10:42:49;96253.66;;;21.55;31.70
64064;BME280;50314;50.618;10.642;2023-07-31T10:48:19;96252.63;;;21.56;31.87
64064;BME280;50314;50.618;10.642;2023-07-31T10:50:48;96245.47;;;21.63;31.95
64064;BME280;50314;50.618;10.642;2023-07-31T10:53:31;96240.94;;;21.64;32.07
64064;BME280;50314;50.618;10.642;2023-07-31T10:56:01;96246.16;;;21.72;31.65
64064;BME280;50314;50.618;10.642;2023-07-31T10:58:27;96241.41;;;21.74;31.50
64064;BME280;50314;50.618;10.642;2023-07-31T11:00:57;96244.09;;;21.74;31.40
64064;BME280;50314;50.618;10.642;2023-07-31T11:03:49;96246.16;;;21.72;31.55
64064;BME280;50314;50.618;10.642;2023-07-31T11:06:17;96247.06;;;21.79;31.53
64064;BME280;50314;50.618;10.642;2023-07-31T11:08:47;96245.38;;;21.78;31.45
64064;BME280;50314;50.618;10.642;2023-07-31T11:11:18;96247.06;;;21.79;31.69
64064;BME280;50314;50.618;10.642;2023-07-31T11:13:45;96240.88;;;21.78;31.88
64064;BME280;50314;50.618;10.642;2023-07-31T11:16:14;96249.09;;;21.77;31.30
64064;BME280;50314;50.618;10.642;2023-07-31T11:18:43;96241.72;;;21.79;31.33
64064;BME280;50314;50.618;10.642;2023-07-31T11:21:12;96250.75;;;21.78;31.50
64064;BME280;50314;50.618;10.642;2023-07-31T11:23:38;96248.72;;;21.80;31.60
64064;BME280;50314;50.618;10.642;2023-07-31T11:26:05;96251.41;;;21.80;31.60
64064;BME280;50314;50.618;10.642;2023-07-31T11:28:35;96248.72;;;21.80;31.30
64064;BME280;50314;50.618;10.642;2023-07-31T11:31:01;96239.63;;;21.81;31.37
64064;BME280;50314;50.618;10.642;2023-07-31T11:33:26;96249.38;;;21.82;31.75
64064;BME280;50314;50.618;10.642;2023-07-31T11:35:52;96252.03;;;21.82;31.32
64064;BME280;50314;50.618;10.642;2023-07-31T11:38:36;96249.09;;;21.77;31.34
64064;BME280;50314;50.618;10.642;2023-07-31T11:41:03;96255.34;;;21.84;31.60
64064;BME280;50314;50.618;10.642;2023-07-31T11:43:30;96253.31;;;21.86;31.58
64064;BME280;50314;50.618;10.642;2023-07-31T11:45:57;96254.94;;;21.87;31.63
64064;BME280;50314;50.618;10.642;2023-07-31T11:48:24;96250.63;;;21.86;31.78
64064;BME280;50314;50.618;10.642;2023-07-31T11:50:53;96249.59;;;21.87;31.69
64064;BME280;50314;50.618;10.642;2023-07-31T11:53:37;96253.69;;;21.83;31.42
64064;BME280;50314;50.618;10.642;2023-07-31T11:56:04;96247.16;;;21.92;31.79
64064;BME280;50314;50.618;10.642;2023-07-31T11:58:31;96250.44;;;21.94;31.99
64064;BME280;50314;50.618;10.642;2023-07-31T12:00:58;96236.88;;;21.96;31.61
64064;BME280;50314;50.618;10.642;2023-07-31T12:03:24;96240.38;;;21.96;31.66
64064;BME280;50314;50.618;10.642;2023-07-31T12:05:50;96244.91;;;21.96;32.01
64064;BME280;50314;50.618;10.642;2023-07-31T12:08:16;96231.50;;;21.96;31.82
64064;BME280;50314;50.618;10.642;2023-07-31T12:10:41;96226.16;;;21.96;31.97
64064;BME280;50314;50.618;10.642;2023-07-31T12:13:10;96228.19;;;21.94;31.60
64064;BME280;50314;50.618;10.642;2023-07-31T12:15:45;96229.00;;;21.94;31.54
64064;BME280;50314;50.618;10.642;2023-07-31T12:18:13;96225.94;;;21.97;31.99
64064;BME280;50314;50.618;10.642;2023-07-31T12:20:46;96224.28;;;21.96;31.89
64064;BME280;50314;50.618;10.642;2023-07-31T12:23:14;96220.81;;;22.02;31.67
64064;BME280;50314;50.618;10.642;2023-07-31T12:25:40;96210.09;;;22.02;31.36
64064;BME280;50314;50.618;10.642;2023-07-31T12:28:07;96208.41;;;22.01;31.50
64064;BME280;50314;50.618;10.642;2023-07-31T12:30:37;96203.91;;;22.02;31.08
64064;BME280;50314;50.618;10.642;2023-07-31T12:33:11;96212.13;;;22.00;30.90
64064;BME280;50314;50.618;10.642;2023-07-31T12:35:39;96203.06;;;22.01;31.60
64064;BME280;50314;50.618;10.642;2023-07-31T12:38:05;96200.59;;;22.00;31.14
64064;BME280;50314;50.618;10.642;2023-07-31T12:40:32;96198.94;;;21.99;31.06
64064;BME280;50314;50.618;10.642;2023-07-31T12:43:00;96199.78;;;21.99;31.50
64064;BME280;50314;50.618;10.642;2023-07-31T12:45:27;96191.50;;;22.01;31.04
64064;BME280;50314;50.618;10.642;2023-07-31T12:47:52;96184.28;;;22.01;31.34
64064;BME280;50314;50.618;10.642;2023-07-31T12:50:18;96192.34;;;22.01;31.31
64064;BME280;50314;50.618;10.642;2023-07-31T12:52:43;96177.09;;;22.02;31.04
64064;BME280;50314;50.618;10.642;2023-07-31T12:55:09;96175.84;;;22.04;31.62
64064;BME280;50314;50.618;10.642;2023-07-31T12:57:36;96173.00;;;22.06;31.75
64064;BME280;50314;50.618;10.642;2023-07-31T13:00:02;96176.50;;;22.07;31.61
64064;BME280;50314;50.618;10.642;2023-07-31T13:02:28;96168.44;;;22.07;31.70